Time;durP1;ratioP1;P1;durP2;ratioP2;P2;SDS_P1;SDS_P2;PMS_P1;PMS_P2;Temp;Humidity;BMP_temperature;BMP_pressure;BME280_temperature;BME280_humidity;BME280_pressure;Samples;Min_cycle;Max_cycle;Signal;HPM_P1;HPM_P2
2022/01/04 00:01:38;;;;;;;36.33;19.85;;;3.30;99.90;;;;;;5030285;28;20017;-80
2022/01/04 00:04:04;;;;;;;39.47;21.02;;;3.30;99.90;;;;;;5030636;28;20033;-81
2022/01/04 00:06:29;;;;;;;36.80;20.50;;;3.30;99.90;;;;;;5048035;28;20021;-81
2022/01/04 00:08:59;;;;;;;36.38;20.35;;;3.30;99.90;;;;;;5048401;28;20036;-82
2022/01/04 00:11:42;;;;;;;47.75;25.08;;;5.40;99.90;;;;;;5031045;28;20064;-81
2022/01/04 00:14:09;;;;;;;45.17;24.20;;;3.40;99.90;;;;;;5031478;28;20048;-80
2022/01/04 00:16:35;;;;;;;47.60;25.42;;;3.30;99.90;;;;;;5052018;28;20025;-81
2022/01/04 00:19:05;;;;;;;48.53;26.30;;;3.30;99.90;;;;;;5053385;28;20017;-81
2022/01/04 00:21:31;;;;;;;45.05;23.90;;;3.30;99.90;;;;;;5051874;28;20029;-81
2022/01/04 00:23:57;;;;;;;93.00;41.60;;;3.30;99.90;;;;;;5053162;28;20078;-81
2022/01/04 00:26:23;;;;;;;105.55;44.75;;;3.30;99.90;;;;;;5053513;28;20017;-80
2022/01/04 00:28:48;;;;;;;68.85;33.28;;;3.30;99.90;;;;;;5054090;28;20029;-81
2022/01/04 00:31:14;;;;;;;88.47;37.20;;;3.40;99.90;;;;;;5034780;28;20041;-80
2022/01/04 00:33:44;;;;;;;81.93;35.13;;;3.20;99.90;;;;;;5050591;28;20052;-80
2022/01/04 00:36:09;;;;;;;56.65;26.75;;;3.60;99.90;;;;;;5034304;28;20273;-81
2022/01/04 00:38:37;;;;;;;44.97;21.95;;;3.20;99.90;;;;;;5052125;28;20021;-81
2022/01/04 00:41:04;;;;;;;44.38;22.63;;;2.50;99.90;;;;;;5051657;28;20076;-81
2022/01/04 00:43:30;;;;;;;55.30;25.65;;;3.30;99.90;;;;;;5051179;28;20028;-80
2022/01/04 00:45:56;;;;;;;48.00;23.02;;;3.20;99.90;;;;;;5047476;28;20086;-80
2022/01/04 00:50:48;;;;;;;156.85;54.65;;;3.40;99.90;;;;;;5050437;28;20318;-81
2022/01/04 00:53:14;;;;;;;84.63;31.27;;;3.40;99.90;;;;;;5051234;28;20087;-82
2022/01/04 00:55:40;;;;;;;109.38;35.40;;;3.40;99.90;;;;;;5032546;28;20036;-80
2022/01/04 00:58:06;;;;;;;78.57;27.52;;;3.40;99.90;;;;;;5029661;28;20316;-80
2022/01/04 01:00:32;;;;;;;97.40;37.88;;;7.00;99.90;;;;;;5046616;28;20021;-80
2022/01/04 01:03:00;;;;;;;80.82;31.08;;;3.40;99.90;;;;;;5028978;28;20609;-81
2022/01/04 01:05:26;;;;;;;132.77;46.92;;;3.40;99.90;;;;;;5031556;28;20080;-80
2022/01/04 01:07:54;;;;;;;58.22;25.10;;;3.30;99.90;;;;;;5029707;28;20524;-81
2022/01/04 01:13:12;;;;;;;69.13;28.65;;;3.40;99.90;;;;;;5047314;28;20232;-80
2022/01/04 01:15:41;;;;;;;64.20;28.05;;;3.30;99.90;;;;;;5047007;28;20545;-80
2022/01/04 01:18:08;;;;;;;53.78;23.05;;;3.30;99.90;;;;;;5046696;28;20403;-81
2022/01/04 01:20:34;;;;;;;59.70;26.83;;;3.40;99.90;;;;;;5029512;28;20049;-80
2022/01/04 01:23:00;;;;;;;36.83;19.40;;;3.40;99.90;;;;;;5047087;28;20052;-81
2022/01/04 01:25:25;;;;;;;55.83;26.02;;;3.30;99.90;;;;;;5047587;28;20091;-81
2022/01/04 01:27:54;;;;;;;62.85;26.52;;;3.40;99.90;;;;;;5029798;28;20088;-80
2022/01/04 01:30:21;;;;;;;53.50;24.25;;;3.30;99.90;;;;;;5029791;28;20304;-81
2022/01/04 01:32:48;;;;;;;38.33;18.05;;;3.30;99.90;;;;;;5049765;28;20277;-81
2022/01/04 01:35:14;;;;;;;31.35;16.70;;;3.30;99.90;;;;;;5050857;28;20021;-81
2022/01/04 01:37:40;;;;;;;30.80;17.60;;;3.30;99.90;;;;;;5050267;28;20020;-80
2022/01/04 01:40:10;;;;;;;36.08;20.13;;;3.30;99.90;;;;;;5050214;28;20055;-80
2022/01/04 01:42:36;;;;;;;32.55;17.98;;;3.30;99.90;;;;;;5052091;28;20028;-80
2022/01/04 01:45:03;;;;;;;32.83;19.48;;;2.60;99.90;;;;;;5053571;28;20025;-81
2022/01/04 01:47:29;;;;;;;71.55;28.92;;;3.30;99.90;;;;;;5056811;28;20025;-82
2022/01/04 01:49:55;;;;;;;60.17;24.20;;;3.20;99.90;;;;;;5057138;28;20067;-81
2022/01/04 01:52:21;;;;;;;65.95;27.60;;;3.20;99.90;;;;;;5054958;28;20043;-81
2022/01/04 01:54:47;;;;;;;60.03;23.90;;;5.10;99.90;;;;;;5051046;28;20107;-81
2022/01/04 01:57:13;;;;;;;34.75;18.27;;;3.10;99.90;;;;;;5049466;28;20514;-81
2022/01/04 01:59:39;;;;;;;136.68;44.85;;;3.10;99.90;;;;;;5047738;28;20380;-81
2022/01/04 02:02:05;;;;;;;87.82;32.95;;;3.10;99.90;;;;;;5046533;28;20056;-81
2022/01/04 02:04:32;;;;;;;74.75;29.52;;;3.10;99.90;;;;;;5044673;28;20052;-81
2022/01/04 02:06:59;;;;;;;148.98;49.00;;;3.10;99.90;;;;;;5044534;28;20464;-81
2022/01/04 02:09:26;;;;;;;77.95;31.70;;;3.10;99.90;;;;;;5045262;28;20304;-81
2022/01/04 02:11:54;;;;;;;43.53;20.42;;;3.00;99.90;;;;;;5045946;28;20074;-81
2022/01/04 02:14:21;;;;;;;101.90;36.63;;;3.00;99.90;;;;;;5045123;28;20230;-81
2022/01/04 02:16:46;;;;;;;67.72;28.77;;;3.00;99.90;;;;;;5046670;28;20115;-81
2022/01/04 02:19:12;;;;;;;57.40;24.95;;;3.00;99.90;;;;;;5049083;28;20029;-81
2022/01/04 02:21:38;;;;;;;155.68;56.80;;;3.00;99.90;;;;;;5030429;28;20021;-81
2022/01/04 02:24:04;;;;;;;83.10;34.13;;;3.00;99.90;;;;;;5048300;28;20017;-81
2022/01/04 02:26:31;;;;;;;61.20;25.65;;;3.00;99.90;;;;;;5047760;28;20056;-81
2022/01/04 02:29:02;;;;;;;42.45;20.98;;;3.10;99.90;;;;;;5026435;28;20111;-80
2022/01/04 02:31:35;;;;;;;42.10;20.45;;;3.20;99.90;;;;;;5045795;28;20128;-80
2022/01/04 02:34:01;;;;;;;29.05;14.82;;;3.20;99.90;;;;;;5045785;28;20033;-81
2022/01/04 02:36:26;;;;;;;36.15;18.88;;;3.20;99.90;;;;;;5047574;28;20036;-81
2022/01/04 02:39:12;;;;;;;37.60;17.73;;;3.30;99.90;;;;;;5046507;28;20539;-82
2022/01/04 02:41:38;;;;;;;30.00;16.25;;;3.20;99.90;;;;;;5046347;28;20394;-79
2022/01/04 02:44:04;;;;;;;27.38;15.48;;;3.20;99.90;;;;;;5045906;28;20321;-80
2022/01/04 02:46:30;;;;;;;32.45;16.40;;;3.20;99.90;;;;;;5047538;28;20114;-81
2022/01/04 02:48:56;;;;;;;33.15;17.63;;;3.20;99.90;;;;;;5048835;28;20059;-81
2022/01/04 02:51:23;;;;;;;33.83;18.02;;;3.10;99.90;;;;;;5048906;28;20048;-80
2022/01/04 02:53:50;;;;;;;37.00;19.42;;;3.10;99.90;;;;;;5029715;28;20031;-81
2022/01/04 02:56:20;;;;;;;36.75;19.58;;;3.20;99.90;;;;;;5048134;28;20021;-82
2022/01/04 02:58:46;;;;;;;29.80;16.70;;;3.20;99.90;;;;;;5047739;28;20680;-80
2022/01/04 03:01:12;;;;;;;32.00;16.70;;;3.10;99.90;;;;;;5049265;28;20055;-80
2022/01/04 03:03:40;;;;;;;30.52;16.90;;;3.10;99.90;;;;;;5047644;28;20214;-80
2022/01/04 03:06:06;;;;;;;30.63;15.95;;;3.10;99.90;;;;;;5047017;28;20029;-81
2022/01/04 03:08:32;;;;;;;27.35;16.05;;;3.10;99.90;;;;;;5047654;28;20036;-81
2022/01/04 03:10:58;;;;;;;26.73;15.52;;;3.10;99.90;;;;;;5049299;28;20017;-81
2022/01/04 03:13:24;;;;;;;26.88;15.23;;;3.10;99.90;;;;;;5047981;28;20021;-81
2022/01/04 03:15:50;;;;;;;31.38;15.68;;;3.10;99.90;;;;;;5049976;28;20247;-80
2022/01/04 03:18:16;;;;;;;28.23;15.30;;;3.10;99.90;;;;;;5050321;28;20013;-82
2022/01/04 03:20:44;;;;;;;23.25;12.52;;;3.10;99.90;;;;;;5050176;28;20368;-81
2022/01/04 03:23:10;;;;;;;29.77;14.57;;;3.10;99.90;;;;;;5032062;28;20022;-81
2022/01/04 03:25:37;;;;;;;26.88;15.73;;;3.10;99.90;;;;;;5053220;28;20510;-81
2022/01/04 03:28:03;;;;;;;26.85;15.10;;;3.20;99.90;;;;;;5053261;28;20040;-81
2022/01/04 03:30:32;;;;;;;25.27;14.15;;;3.20;99.90;;;;;;5055310;28;20032;-80
2022/01/04 03:32:58;;;;;;;24.08;12.50;;;3.50;99.90;;;;;;5060500;28;20029;-81
2022/01/04 03:35:25;;;;;;;22.63;13.18;;;3.20;99.90;;;;;;5061941;28;20590;-82
2022/01/04 03:37:53;;;;;;;26.27;14.10;;;3.20;99.90;;;;;;5062764;28;20280;-82
2022/01/04 03:40:19;;;;;;;23.73;12.40;;;3.20;99.90;;;;;;5057196;28;20029;-81
2022/01/04 03:42:45;;;;;;;24.20;13.30;;;3.20;99.90;;;;;;5036762;28;20292;-81
2022/01/04 03:45:14;;;;;;;20.65;11.88;;;3.20;99.90;;;;;;5034425;28;20028;-79
2022/01/04 03:47:39;;;;;;;22.75;11.95;;;3.20;99.90;;;;;;5051743;28;20091;-81
2022/01/04 03:50:06;;;;;;;25.65;13.65;;;3.10;99.90;;;;;;5051063;28;20045;-81
2022/01/04 03:52:35;;;;;;;23.90;13.27;;;2.80;99.90;;;;;;5050509;28;20878;-80
2022/01/04 03:55:02;;;;;;;26.85;13.05;;;3.20;99.90;;;;;;5051633;28;20029;-81
2022/01/04 03:57:29;;;;;;;29.30;13.80;;;3.20;99.90;;;;;;5051586;28;20305;-81
2022/01/04 03:59:55;;;;;;;27.25;14.85;;;3.20;99.90;;;;;;5049900;28;20035;-81
2022/01/04 04:02:20;;;;;;;23.40;11.65;;;3.20;99.90;;;;;;5050131;28;20033;-82
2022/01/04 04:04:50;;;;;;;20.27;11.50;;;3.30;99.90;;;;;;5047313;28;20048;-81
2022/01/04 04:07:16;;;;;;;20.35;11.23;;;3.30;99.90;;;;;;5029374;28;20095;-81
2022/01/04 04:09:42;;;;;;;20.70;11.90;;;3.10;99.90;;;;;;5048834;28;20548;-81
2022/01/04 04:12:14;;;;;;;19.00;11.73;;;3.20;99.90;;;;;;5050239;28;20028;-81
2022/01/04 04:14:51;;;;;;;20.33;11.13;;;3.20;99.90;;;;;;5050484;28;20040;-80
2022/01/04 04:17:19;;;;;;;39.95;18.90;;;3.20;99.90;;;;;;5032140;28;20028;-80
2022/01/04 04:19:48;;;;;;;34.05;16.55;;;3.20;99.90;;;;;;5032343;28;20107;-82
2022/01/04 04:22:14;;;;;;;34.67;17.08;;;3.10;99.90;;;;;;5049602;28;20710;-79
2022/01/04 04:24:44;;;;;;;23.98;12.77;;;3.20;99.90;;;;;;5050215;28;20021;-81
2022/01/04 04:27:14;;;;;;;20.27;10.93;;;3.30;99.90;;;;;;5030441;28;20032;-81
2022/01/04 04:29:41;;;;;;;17.40;10.23;;;3.40;99.90;;;;;;5049011;28;20029;-81
2022/01/04 04:32:16;;;;;;;19.90;11.18;;;3.40;99.90;;;;;;5049724;28;20542;-81
2022/01/04 04:34:41;;;;;;;26.13;13.18;;;3.40;99.90;;;;;;5050417;28;20098;-80
2022/01/04 04:37:07;;;;;;;24.63;13.00;;;3.40;99.90;;;;;;5031799;28;20459;-80
2022/01/04 04:39:33;;;;;;;21.83;11.38;;;3.50;99.90;;;;;;5047178;28;20029;-80
2022/01/04 04:41:59;;;;;;;21.08;10.25;;;3.50;99.90;;;;;;5029748;28;20504;-80
2022/01/04 04:44:28;;;;;;;17.02;10.00;;;3.50;99.90;;;;;;5031071;28;20040;-81
2022/01/04 04:46:53;;;;;;;17.42;9.38;;;5.10;99.90;;;;;;5050185;28;20025;-80
2022/01/04 04:49:19;;;;;;;17.52;10.32;;;3.60;99.90;;;;;;5049181;28;20379;-80
2022/01/04 04:51:45;;;;;;;22.67;11.48;;;3.60;99.90;;;;;;5047741;28;20685;-80
2022/01/04 04:54:10;;;;;;;16.27;9.50;;;1.80;99.90;;;;;;5048718;28;20021;-81
2022/01/04 04:56:39;;;;;;;18.73;8.55;;;3.60;99.90;;;;;;5049388;28;20089;-81
2022/01/04 04:59:26;;;;;;;16.83;8.50;;;3.50;99.90;;;;;;5048896;28;20215;-80
2022/01/04 05:01:51;;;;;;;;;;;3.60;99.90;;;;;;5049432;28;20025;-80
2022/01/04 05:04:18;;;;;;;12.87;8.50;;;3.60;99.90;;;;;;5050468;28;19905;-80
2022/01/04 05:06:44;;;;;;;14.52;8.52;;;3.40;99.90;;;;;;5050551;28;20013;-81
2022/01/04 05:09:10;;;;;;;15.50;8.52;;;3.50;99.90;;;;;;5051882;28;20098;-81
2022/01/04 05:11:36;;;;;;;14.82;8.05;;;3.40;99.90;;;;;;5051629;28;20020;-82
2022/01/04 05:14:04;;;;;;;15.73;9.40;;;3.30;99.90;;;;;;5052432;28;20070;-81
2022/01/04 05:16:30;;;;;;;19.88;8.65;;;3.50;99.90;;;;;;5051384;28;20032;-81
2022/01/04 05:18:56;;;;;;;17.50;9.25;;;3.40;99.90;;;;;;5048891;28;20096;-80
2022/01/04 05:21:21;;;;;;;19.75;10.77;;;3.40;99.90;;;;;;5030227;28;20025;-81
2022/01/04 05:23:47;;;;;;;28.88;15.00;;;3.40;99.90;;;;;;5047679;28;20035;-81
2022/01/04 05:26:16;;;;;;;31.05;17.77;;;3.50;99.90;;;;;;5046572;28;20090;-81
2022/01/04 05:28:47;;;;;;;50.05;26.55;;;3.30;99.90;;;;;;5024880;28;20698;-81
2022/01/04 05:31:14;;;;;;;52.63;27.13;;;3.80;99.90;;;;;;5025766;28;20029;-80
2022/01/04 05:33:40;;;;;;;50.67;24.20;;;4.40;99.90;;;;;;5011167;28;20037;-81
2022/01/04 05:36:08;;;;;;;29.08;15.80;;;3.40;99.90;;;;;;5028830;28;20056;-81
2022/01/04 05:38:35;;;;;;;24.52;13.13;;;3.50;99.90;;;;;;5027253;28;20068;-81
2022/01/04 05:41:02;;;;;;;22.48;12.85;;;3.40;99.90;;;;;;5026379;28;20025;-81
2022/01/04 05:43:31;;;;;;;27.98;13.90;;;3.50;99.90;;;;;;5026340;28;20034;-80
2022/01/04 05:45:56;;;;;;;22.73;12.45;;;3.50;99.90;;;;;;5023530;28;20037;-79
2022/01/04 05:48:22;;;;;;;22.45;11.90;;;3.50;99.90;;;;;;5030551;28;20045;-80
2022/01/04 05:50:49;;;;;;;23.95;11.75;;;3.60;99.90;;;;;;5034986;28;20298;-82
2022/01/04 05:53:15;;;;;;;26.48;13.90;;;4.00;99.90;;;;;;5035689;28;20026;-80
2022/01/04 05:55:42;;;;;;;30.13;15.57;;;3.50;99.90;;;;;;5014740;28;20029;-79
2022/01/04 05:58:08;;;;;;;41.92;23.13;;;3.60;99.90;;;;;;5028433;28;20484;-81
2022/01/04 06:00:37;;;;;;;28.85;15.52;;;3.50;99.90;;;;;;5045721;28;20241;-81
2022/01/04 06:03:10;;;;;;;29.20;15.73;;;3.50;99.90;;;;;;5048511;28;20036;-80
2022/01/04 06:05:36;;;;;;;27.85;13.10;;;3.50;99.90;;;;;;5047999;28;20519;-81
2022/01/04 06:08:02;;;;;;;23.00;13.52;;;3.50;99.90;;;;;;5045405;28;20166;-81
2022/01/04 06:10:35;;;;;;;27.77;16.30;;;6.20;99.90;;;;;;5026606;28;20021;-82
2022/01/04 06:15:27;;;;;;;49.70;27.83;;;0.70;99.90;;;;;;5045558;28;20096;-80
2022/01/04 06:17:53;;;;;;;66.18;35.50;;;3.30;99.90;;;;;;5028351;28;20056;-80
2022/01/04 06:20:22;;;;;;;59.13;29.35;;;3.30;99.90;;;;;;5045574;28;20487;-80
2022/01/04 06:22:49;;;;;;;58.50;26.27;;;3.30;99.90;;;;;;5027316;28;20028;-81
2022/01/04 06:25:19;;;;;;;34.63;19.13;;;3.10;99.90;;;;;;5044844;28;20409;-81
2022/01/04 06:27:48;;;;;;;31.58;15.60;;;3.30;99.90;;;;;;5046252;28;20028;-80
2022/01/04 06:30:17;;;;;;;24.42;13.90;;;3.30;99.90;;;;;;5028419;28;20131;-80
2022/01/04 06:32:44;;;;;;;26.08;15.05;;;3.20;99.90;;;;;;5028561;28;20407;-81
2022/01/04 06:35:10;;;;;;;27.95;16.10;;;3.20;99.90;;;;;;5045846;28;20021;-80
2022/01/04 06:37:37;;;;;;;28.60;16.27;;;3.20;99.90;;;;;;5027983;28;20456;-81
2022/01/04 06:40:03;;;;;;;32.00;16.08;;;3.20;99.90;;;;;;5047266;28;20070;-80
2022/01/04 06:42:29;;;;;;;27.10;14.95;;;3.10;99.90;;;;;;5046417;28;20262;-81
2022/01/04 06:44:55;;;;;;;32.42;15.65;;;3.10;99.90;;;;;;5046558;28;20033;-81
2022/01/04 06:47:20;;;;;;;37.67;19.08;;;3.20;99.90;;;;;;5028547;28;20033;-81
2022/01/04 06:49:46;;;;;;;39.78;21.13;;;3.20;99.90;;;;;;5046791;28;20040;-80
2022/01/04 06:52:15;;;;;;;49.72;24.85;;;3.20;99.90;;;;;;5043922;28;20373;-80
2022/01/04 06:54:41;;;;;;;46.67;24.25;;;3.20;99.90;;;;;;5026519;28;20527;-81
2022/01/04 06:57:07;;;;;;;37.95;18.23;;;3.30;99.90;;;;;;5047069;28;20100;-80
2022/01/04 06:59:33;;;;;;;32.72;16.25;;;3.20;99.90;;;;;;5047385;28;20490;-81
2022/01/04 07:02:00;;;;;;;27.30;16.00;;;3.40;99.90;;;;;;5048697;28;20029;-82
2022/01/04 07:04:26;;;;;;;25.48;13.18;;;3.30;99.90;;;;;;5048580;28;20288;-81
2022/01/04 07:06:55;;;;;;;29.70;16.42;;;0.80;99.90;;;;;;5046444;28;20292;-80
2022/01/04 07:09:21;;;;;;;33.17;17.55;;;3.40;99.90;;;;;;5046672;28;20306;-81
2022/01/04 07:11:46;;;;;;;32.88;17.58;;;3.40;99.90;;;;;;5047645;28;20025;-81
2022/01/04 07:14:12;;;;;;;38.53;20.65;;;3.40;99.90;;;;;;5047443;28;20112;-81
2022/01/04 07:16:38;;;;;;;40.70;20.73;;;3.50;99.90;;;;;;5049499;28;20029;-80
2022/01/04 07:19:05;;;;;;;35.33;19.20;;;3.60;99.90;;;;;;5049459;28;20036;-81
2022/01/04 07:21:36;;;;;;;37.45;20.00;;;3.70;99.90;;;;;;5031851;28;20531;-81
2022/01/04 07:24:03;;;;;;;42.38;19.60;;;3.60;99.90;;;;;;5030626;28;20052;-81
2022/01/04 07:26:29;;;;;;;37.72;20.20;;;3.70;99.90;;;;;;5046577;28;20084;-81
2022/01/04 07:28:57;;;;;;;39.65;22.00;;;3.70;99.90;;;;;;5047148;28;20140;-80
2022/01/04 07:31:24;;;;;;;49.25;26.85;;;3.80;99.90;;;;;;5026339;28;20116;-80
2022/01/04 07:33:50;;;;;;;32.08;18.60;;;5.50;99.90;;;;;;5026935;28;20025;-81
2022/01/04 07:36:16;;;;;;;29.45;15.98;;;3.20;99.90;;;;;;5013148;28;20059;-82
2022/01/04 07:38:42;;;;;;;31.10;16.23;;;4.00;99.90;;;;;;5029211;28;20017;-81
2022/01/04 07:41:11;;;;;;;34.75;18.73;;;4.00;99.90;;;;;;5028269;28;20033;-81
2022/01/04 07:43:39;;;;;;;43.38;24.70;;;4.10;99.90;;;;;;5011498;28;20025;-81
2022/01/04 07:46:05;;;;;;;46.50;23.75;;;4.20;99.90;;;;;;5043867;28;20021;-81
2022/01/04 07:48:31;;;;;;;85.72;43.17;;;3.30;99.90;;;;;;5045620;28;20044;-80
2022/01/04 07:50:58;;;;;;;109.63;56.03;;;4.40;99.90;;;;;;5026400;28;20139;-81
2022/01/04 07:53:24;;;;;;;107.65;58.33;;;4.40;99.90;;;;;;5045606;28;20100;-81
2022/01/04 07:55:50;;;;;;;111.50;60.35;;;4.40;99.90;;;;;;5028144;28;20025;-80
2022/01/04 07:58:25;;;;;;;133.05;70.30;;;4.50;99.90;;;;;;5032806;28;20028;-82
2022/01/04 08:00:51;;;;;;;151.07;78.60;;;4.50;99.60;;;;;;5030813;28;20053;-80
2022/01/04 08:03:21;;;;;;;151.70;80.28;;;4.60;99.70;;;;;;5032478;28;20033;-80
2022/01/04 08:05:47;;;;;;;139.65;75.88;;;1.60;98.60;;;;;;5047396;28;20114;-82
2022/01/04 08:08:19;;;;;;;137.27;75.63;;;4.70;99.00;;;;;;5024772;28;20326;-80
2022/01/04 08:10:46;;;;;;;136.35;71.40;;;4.30;99.10;;;;;;5027324;28;20032;-80
2022/01/04 08:13:16;;;;;;;130.73;71.45;;;4.80;99.10;;;;;;5051437;28;20047;-81
2022/01/04 08:15:44;;;;;;;130.77;67.97;;;3.10;98.90;;;;;;5054355;28;20068;-79
2022/01/04 08:18:10;;;;;;;118.50;64.90;;;5.00;99.30;;;;;;5030616;28;20025;-81
2022/01/04 08:20:36;;;;;;;110.75;59.20;;;5.10;99.10;;;;;;5056635;28;20164;-80
2022/01/04 08:23:02;;;;;;;122.30;65.68;;;5.20;98.70;;;;;;5056347;28;20028;-80
2022/01/04 08:25:29;;;;;;;116.13;64.82;;;5.30;98.50;;;;;;5042859;28;20029;-81
2022/01/04 08:27:56;;;;;;;125.95;67.63;;;5.40;98.50;;;;;;5053393;28;20028;-82
2022/01/04 08:30:22;;;;;;;139.85;76.07;;;5.50;98.40;;;;;;5049452;28;20022;-81
2022/01/04 08:32:53;;;;;;;129.10;70.00;;;5.60;98.50;;;;;;5032817;28;20222;-81
2022/01/04 08:35:25;;;;;;;126.03;70.22;;;5.50;98.10;;;;;;5058600;28;20017;-82
2022/01/04 08:37:51;;;;;;;138.73;71.85;;;5.70;98.00;;;;;;5048012;28;20028;-79
2022/01/04 08:40:25;;;;;;;124.38;71.68;;;5.80;98.00;;;;;;5062728;28;20100;-83
2022/01/04 08:42:50;;;;;;;140.82;73.20;;;5.90;98.10;;;;;;5044030;28;20090;-81
2022/01/04 08:45:28;;;;;;;131.65;69.90;;;5.90;97.50;;;;;;5061099;28;20017;-82
2022/01/04 08:47:56;;;;;;;130.90;68.80;;;5.90;97.60;;;;;;5062499;28;20025;-80
2022/01/04 08:50:22;;;;;;;135.57;73.78;;;6.00;97.80;;;;;;5043255;28;20064;-80
2022/01/04 08:52:54;;;;;;;125.72;67.20;;;6.10;97.50;;;;;;5058035;28;20028;-81
2022/01/04 08:55:21;;;;;;;130.57;68.85;;;6.20;97.30;;;;;;5058498;28;20023;-79
2022/01/04 08:57:47;;;;;;;123.28;71.18;;;6.40;96.70;;;;;;5056696;28;20033;-79
2022/01/04 09:00:14;;;;;;;127.95;72.38;;;9.10;97.50;;;;;;5036624;28;20155;-80
2022/01/04 09:02:43;;;;;;;142.82;79.25;;;6.60;96.90;;;;;;5054298;28;20021;-80
2022/01/04 09:05:10;;;;;;;143.32;75.70;;;6.60;97.30;;;;;;5054388;28;20028;-80
2022/01/04 09:07:36;;;;;;;134.85;75.22;;;6.80;96.60;;;;;;5055184;28;20029;-79
2022/01/04 09:10:04;;;;;;;137.57;76.90;;;6.80;96.50;;;;;;5055235;28;20036;-80
2022/01/04 09:12:47;;;;;;;154.35;83.80;;;7.00;96.30;;;;;;5037329;28;20040;-79
2022/01/04 09:20:45;;;;;;;156.80;84.47;;;7.60;95.20;;;;;;5049979;28;20044;-80
2022/01/04 09:23:18;;;;;;;135.80;76.28;;;7.80;94.80;;;;;;5057090;28;20013;-81
2022/01/04 09:25:51;;;;;;;136.85;74.90;;;8.10;94.30;;;;;;5060897;28;20032;-81
2022/01/04 09:28:18;;;;;;;120.07;64.38;;;8.20;93.80;;;;;;5052443;28;20472;-80
2022/01/04 09:30:46;;;;;;;141.27;78.70;;;8.40;94.00;;;;;;5043394;28;20039;-80
2022/01/04 09:33:14;;;;;;;159.27;88.20;;;8.30;93.20;;;;;;5038440;28;20681;-81
2022/01/04 09:35:43;;;;;;;163.38;89.15;;;8.90;92.70;;;;;;5036828;28;20032;-82
2022/01/04 09:38:12;;;;;;;106.78;59.03;;;9.00;92.50;;;;;;5040980;28;20021;-80
2022/01/04 09:40:39;;;;;;;32.35;20.10;;;9.10;92.60;;;;;;5058547;28;20033;-80
2022/01/04 09:43:06;;;;;;;47.15;26.90;;;9.40;92.80;;;;;;5043815;28;20033;-81
2022/01/04 09:45:36;;;;;;;43.63;24.75;;;9.70;92.30;;;;;;5059866;28;20025;-81
2022/01/04 09:48:03;;;;;;;141.35;75.00;;;9.90;92.20;;;;;;5045128;28;20017;-82
2022/01/04 09:50:29;;;;;;;106.85;58.70;;;10.10;91.10;;;;;;5060412;28;20041;-81
2022/01/04 09:53:09;;;;;;;38.05;21.65;;;10.20;90.80;;;;;;5062202;28;20037;-80
2022/01/04 09:55:55;;;;;;;25.33;14.90;;;10.40;90.80;;;;;;5060717;28;20084;-82
2022/01/04 09:58:55;;;;;;;30.65;15.57;;;10.60;90.50;;;;;;5054621;28;20044;-84
2022/01/04 10:01:25;;;;;;;39.13;21.75;;;10.90;90.10;;;;;;5051574;28;20025;-79
2022/01/04 10:03:51;;;;;;;27.95;15.68;;;10.90;89.00;;;;;;5055345;28;20017;-80
2022/01/04 10:06:27;;;;;;;22.92;13.63;;;11.20;88.60;;;;;;5024837;28;20096;-77
2022/01/04 10:09:14;;;;;;;24.00;12.20;;;8.80;85.90;;;;;;5043782;28;20268;-79
2022/01/04 10:11:50;;;;;;;19.27;10.52;;;12.00;87.00;;;;;;5065745;28;20037;-79
2022/01/04 10:14:36;;;;;;;36.13;19.15;;;11.50;85.60;;;;;;5046578;28;20048;-79
2022/01/04 10:17:23;;;;;;;31.40;19.55;;;9.00;84.10;;;;;;5065000;28;20029;-80
2022/01/04 10:20:03;;;;;;;91.90;54.50;;;11.70;85.30;;;;;;5060704;28;20096;-79
2022/01/04 10:22:35;;;;;;;87.55;47.47;;;11.80;83.60;;;;;;5064111;28;20021;-83
2022/01/04 10:25:00;;;;;;;71.45;39.85;;;12.50;84.80;;;;;;5064521;28;20084;-79
2022/01/04 10:27:51;;;;;;;60.75;35.22;;;11.60;85.20;;;;;;5057207;28;20017;-80
2022/01/04 10:30:57;;;;;;;65.63;37.20;;;11.40;85.20;;;;;;5057127;28;20033;-81
2022/01/04 10:33:28;;;;;;;42.08;23.52;;;11.30;86.50;;;;;;5059515;28;20021;-81
2022/01/04 10:35:55;;;;;;;40.05;21.35;;;11.10;87.40;;;;;;5060496;28;20028;-79
2022/01/04 10:38:39;;;;;;;47.72;27.35;;;11.10;87.30;;;;;;5062936;28;20028;-81
2022/01/04 10:41:26;;;;;;;55.00;32.63;;;11.10;87.70;;;;;;5063939;28;20278;-80
2022/01/04 10:44:02;;;;;;;40.28;25.10;;;11.00;87.50;;;;;;5061685;28;20029;-81
2022/01/04 10:47:08;;;;;;;38.87;22.47;;;11.10;87.80;;;;;;5044694;28;20044;-80
2022/01/04 10:49:42;;;;;;;38.00;21.98;;;11.10;87.60;;;;;;4967029;29;20107;-80
2022/01/04 10:52:30;;;;;;;43.70;25.35;;;11.40;87.30;;;;;;4947892;29;20048;-81
2022/01/04 10:55:15;;;;;;;47.40;27.45;;;9.30;86.00;;;;;;4961750;28;20035;-82
2022/01/04 10:57:41;;;;;;;25.05;11.93;;;11.20;86.90;;;;;;4947927;28;20043;-81
2022/01/04 11:00:32;;;;;;;37.80;22.30;;;11.20;85.70;;;;;;4968124;28;20091;-81
2022/01/04 11:03:02;;;;;;;32.55;19.35;;;11.20;85.90;;;;;;4973423;29;20079;-81
2022/01/04 11:05:35;;;;;;;29.02;16.02;;;11.30;86.60;;;;;;4930820;29;20057;-80
2022/01/04 11:08:23;;;;;;;21.98;12.18;;;11.30;86.80;;;;;;4971062;28;20054;-83
2022/01/04 11:10:55;;;;;;;25.90;14.50;;;11.40;86.90;;;;;;4961880;29;20051;-81
2022/01/04 11:13:36;;;;;;;14.68;8.77;;;11.70;87.20;;;;;;4963802;28;20051;-80
2022/01/04 11:16:03;;;;;;;16.30;10.00;;;13.10;87.40;;;;;;4971148;29;20015;-82
2022/01/04 11:18:31;;;;;;;17.25;10.02;;;11.40;86.50;;;;;;4970260;29;20034;-80
2022/01/04 11:21:07;;;;;;;12.95;8.15;;;11.40;86.60;;;;;;4964048;29;20086;-80
2022/01/04 11:23:33;;;;;;;13.80;7.13;;;11.40;86.60;;;;;;4962423;29;20035;-81
2022/01/04 11:26:05;;;;;;;8.90;4.68;;;11.40;86.60;;;;;;4997840;28;20057;-81
2022/01/04 11:28:39;;;;;;;8.75;4.95;;;11.50;86.50;;;;;;5031450;28;20490;-82
2022/01/04 11:31:31;;;;;;;9.90;5.10;;;11.60;85.60;;;;;;5049147;28;20049;-80
2022/01/04 11:34:22;;;;;;;7.03;3.53;;;11.90;84.70;;;;;;5028519;28;20061;-83
2022/01/04 11:37:41;;;;;;;7.88;4.00;;;12.30;82.30;;;;;;5048436;28;20017;-83
2022/01/04 11:40:40;;;;;;;8.63;4.93;;;12.60;80.80;;;;;;5047458;28;20024;-81
2022/01/04 11:43:39;;;;;;;7.88;4.43;;;13.00;78.00;;;;;;4988723;28;20031;-83
2022/01/04 11:46:06;;;;;;;9.55;4.88;;;13.40;75.30;;;;;;4975361;28;20611;-82
2022/01/04 11:48:42;;;;;;;7.93;4.00;;;14.20;74.90;;;;;;4968444;28;20046;-85
2022/01/04 11:51:29;;;;;;;10.27;4.60;;;13.70;73.40;;;;;;4961509;28;20241;-83
2022/01/04 11:54:15;;;;;;;5.55;3.53;;;13.90;71.50;;;;;;4960944;28;20061;-82
2022/01/04 11:56:48;;;;;;;10.15;5.13;;;14.10;69.20;;;;;;4977109;28;20061;-84
2022/01/04 11:59:19;;;;;;;8.93;4.00;;;14.20;69.70;;;;;;4963655;28;20500;-83
2022/01/04 12:01:45;;;;;;;5.13;3.22;;;14.30;68.00;;;;;;4961417;28;20115;-83
2022/01/04 12:04:10;;;;;;;5.78;3.28;;;14.50;68.90;;;;;;4960714;28;20118;-83
2022/01/04 12:06:42;;;;;;;5.30;3.33;;;14.50;66.20;;;;;;4960036;28;20363;-84
2022/01/04 12:09:50;;;;;;;11.18;5.68;;;14.50;67.60;;;;;;4959648;28;20035;-85
2022/01/04 12:12:55;;;;;;;6.07;2.75;;;14.80;65.60;;;;;;4883942;29;20703;-85
2022/01/04 12:15:32;;;;;;;6.97;3.85;;;14.60;64.70;;;;;;4883320;29;20339;-83
2022/01/04 12:17:59;;;;;;;8.13;3.80;;;14.60;65.30;;;;;;4884001;29;20073;-85
2022/01/04 12:20:43;;;;;;;8.75;4.70;;;14.70;63.80;;;;;;4921867;29;20035;-82
2022/01/04 12:23:27;;;;;;;5.82;3.17;;;14.70;65.70;;;;;;4941591;28;20047;-84
2022/01/04 12:26:16;;;;;;;8.68;3.28;;;14.60;63.20;;;;;;4942871;29;20041;-82
2022/01/04 12:28:59;;;;;;;7.97;4.15;;;14.80;62.80;;;;;;4945257;29;20561;-81
2022/01/04 12:31:27;;;;;;;11.45;5.38;;;11.40;62.20;;;;;;4942418;29;20292;-82
2022/01/04 12:33:59;;;;;;;12.35;6.03;;;15.00;64.60;;;;;;4942660;29;20302;-83
2022/01/04 12:36:40;;;;;;;8.25;5.18;;;15.20;62.80;;;;;;4943870;29;20110;-81
2022/01/04 12:39:14;;;;;;;6.80;4.22;;;15.30;62.50;;;;;;4947379;29;20421;-83
2022/01/04 12:41:42;;;;;;;10.55;5.47;;;15.50;60.50;;;;;;4949783;29;20050;-84
2022/01/04 12:44:10;;;;;;;8.32;3.40;;;15.40;61.00;;;;;;4946474;29;20135;-83
2022/01/04 12:46:41;;;;;;;3.38;2.60;;;15.50;59.80;;;;;;4945020;29;20019;-80
2022/01/04 12:49:20;;;;;;;2.65;2.25;;;15.40;59.90;;;;;;4965970;28;20422;-81
2022/01/04 12:51:53;;;;;;;10.73;5.28;;;17.10;61.30;;;;;;5044623;28;20056;-81
2022/01/04 12:54:26;;;;;;;17.73;8.18;;;15.10;61.10;;;;;;5040959;28;20617;-81
2022/01/04 12:57:00;;;;;;;11.13;6.30;;;14.70;62.70;;;;;;5025856;28;20484;-81
2022/01/04 12:59:26;;;;;;;9.15;5.65;;;14.40;64.80;;;;;;5045207;28;20187;-82
2022/01/04 13:01:54;;;;;;;9.98;5.72;;;14.20;65.60;;;;;;5047948;28;20523;-80
2022/01/04 13:04:24;;;;;;;10.65;5.60;;;14.30;65.60;;;;;;5047270;28;20021;-83